Harburg, Germany

6:59 PM CEST on August 01, 2014 (GMT +0200)
Augsburg (IBAYERND2) Elev 1348 ft | 48.72 °N, 10.75 °E | Change Station

Current weather conditions updated 59 minutes ago

Partly Cloudy
Partly Cloudy
77.7 °F
Feels Like 79 °F
N
0.7
Wind Variable Wind from North
Gusts 4.0 mph

Tomorrow is forecast to be Warmer than today. Thunderstorms early tomorrow night.

Today
High -- | Low -- °F
--% Chance of Precip.
Yesterday
High -- | Low -- °F
Precip. -- in
5:50 AM 8:55 PM
Waxing Crescent, 28% visible
Pressure 29.86 in
Visibility 6.2 miles
Clouds Few 3900 ft
Heat Index 79 °F
Dew Point 61 °F
Humidity 56%
Rainfall 0.00 in
Snow Depth Not available.
UV 1.2 out of 12
Pollen Not available.
Air Quality Not available.
Flu Activity Not available.
METAR EDMA 011650Z 10005KT 040V130 9999 FEW039 25/14 Q1011 RMK ATIS JUL

More Conditions Fewer Conditions

Pressure 29.86 in
Visibility 6.2 miles
Clouds Few 3900 ft
Heat Index 79 °F
Dew Point 61 °F
Humidity 56%
Rainfall 0.00 in
Snow Depth Not available.
UV 1.2 out of 12
Pollen Not available.
Air Quality Not available.
Flu Activity Not available.
METAR EDMA 011650Z 10005KT 040V130 9999 FEW039 25/14 Q1011 RMK ATIS JUL

More Conditions Fewer Conditions

10-Day Weather Forecast

Almanac

Astronomy

Aug. 01, 2014 Rise Set
Actual Time 5:50 AM CEST 8:55 PM CEST
Civil Twilight 5:13 AM CEST 9:32 PM CEST
Nautical Twilight 4:24 AM CEST 10:21 PM CEST
Astronomical Twilight 3:23 AM CEST 11:21 PM CEST
Moon 11:29 AM CEST 10:58 PM CEST
Length of Visible Light 16h 19m
Length of Day
15h 05m
Tomorrow will be 2m 49s shorter.
Waxing Crescent, 28% of the Moon is Illuminated
Today
Waxing Crescent
Aug 3
First Quarter
Aug 10
Full
Aug 17
Last Quarter
Aug 25
New

Today's Extremes

Country Highs Country Lows

Community

WunderPhotos

Upload Photos

1,739,632 photos uploaded!

Nearby

Snow Depth

Not available.

Earthquake Activity

City Distance Mag. Time & Date
No recent earthquake activity has been reported nearby.
Minimum magnitude displayed is 2.5.

Coastal Water Temperatures

Place Temperature
No Stations Reporting

Nearby Weather Stations

Station Location Temp. Heat Index Dew Point Humidity Wind Precip. Elev Updated Type
Augsburg, Donauworth 77.7 °F 79 °F 61 °F 56% North  at  0.7 mph 0.00 in / hr 1348 ft 6:00 PM CEST Normal
Egner GmbH, Reimlingen 76.3 °F 78 °F 58 °F 53% NNW  at  0.0 mph 0.00 in / hr 1434 ft 6:59 PM CEST Rapid Fire
73467 Kirchheim am Ries, Kirchheim Am Ries 75.2 °F 78 °F 55 °F 50% NNE  at  4.3 mph 0.00 in / hr 1499 ft 6:59 PM CEST Rapid Fire
86742 Fremdingen/ Hausen, Fremdingen 74.7 °F 78 °F 52 °F 46% North  at  3.4 mph 0.00 in / hr 1522 ft 6:59 PM CEST Rapid Fire
Haus Talblick Neresheim, Neresheim 75.9 °F 78 °F 57 °F 52% SSW  at  0.0 mph 0.00 in / hr 1722 ft 6:59 PM CEST Rapid Fire
Rohrenfels 84.0 °F 85 °F 62 °F 48% SE  at  0.0 mph 0.00 in / hr 1257 ft 6:59 PM CEST Normal

Show More Stations Show Fewer Stations